sensor_id;sensor_type;location;lat;lon;timestamp;temperature;humidity
48728;DHT22;34527;45.618;5.130;2023-08-08T00:01:51;15.60;99.90
48728;DHT22;34527;45.618;5.130;2023-08-08T00:04:16;15.50;99.90
48728;DHT22;34527;45.618;5.130;2023-08-08T00:06:42;15.40;99.90
48728;DHT22;34527;45.618;5.130;2023-08-08T00:09:08;15.40;99.90
48728;DHT22;34527;45.618;5.130;2023-08-08T00:11:34;15.30;99.90
48728;DHT22;34527;45.618;5.130;2023-08-08T00:14:00;15.30;99.90
48728;DHT22;34527;45.618;5.130;2023-08-08T00:16:25;15.20;99.90
48728;DHT22;34527;45.618;5.130;2023-08-08T00:18:51;15.10;99.90
48728;DHT22;34527;45.618;5.130;2023-08-08T00:21:19;15.00;99.90
48728;DHT22;34527;45.618;5.130;2023-08-08T00:23:45;14.90;99.90
48728;DHT22;34527;45.618;5.130;2023-08-08T00:26:11;14.80;99.90
48728;DHT22;34527;45.618;5.130;2023-08-08T00:28:36;14.70;99.90
48728;DHT22;34527;45.618;5.130;2023-08-08T00:31:02;14.70;99.90
48728;DHT22;34527;45.618;5.130;2023-08-08T00:33:27;14.60;99.90
48728;DHT22;34527;45.618;5.130;2023-08-08T00:35:53;14.60;99.90
48728;DHT22;34527;45.618;5.130;2023-08-08T00:38:19;14.30;99.90
48728;DHT22;34527;45.618;5.130;2023-08-08T00:40:45;14.30;99.90
48728;DHT22;34527;45.618;5.130;2023-08-08T00:43:10;14.40;99.90
48728;DHT22;34527;45.618;5.130;2023-08-08T00:45:37;14.20;99.90
48728;DHT22;34527;45.618;5.130;2023-08-08T00:48:03;14.20;99.90
48728;DHT22;34527;45.618;5.130;2023-08-08T00:50:29;14.00;99.90
48728;DHT22;34527;45.618;5.130;2023-08-08T00:52:55;13.90;99.90
48728;DHT22;34527;45.618;5.130;2023-08-08T00:55:21;14.00;99.90
48728;DHT22;34527;45.618;5.130;2023-08-08T00:57:47;13.80;99.90
48728;DHT22;34527;45.618;5.130;2023-08-08T01:00:13;13.70;99.90
48728;DHT22;34527;45.618;5.130;2023-08-08T01:02:39;13.80;99.90
48728;DHT22;34527;45.618;5.130;2023-08-08T01:05:05;13.80;99.90
48728;DHT22;34527;45.618;5.130;2023-08-08T01:07:47;13.70;99.90
48728;DHT22;34527;45.618;5.130;2023-08-08T01:10:25;13.60;99.90
48728;DHT22;34527;45.618;5.130;2023-08-08T01:13:02;13.60;99.90
48728;DHT22;34527;45.618;5.130;2023-08-08T01:15:30;13.70;99.90
48728;DHT22;34527;45.618;5.130;2023-08-08T01:18:04;13.60;99.90
48728;DHT22;34527;45.618;5.130;2023-08-08T01:20:32;13.70;99.90
48728;DHT22;34527;45.618;5.130;2023-08-08T01:23:25;13.70;99.90
48728;DHT22;34527;45.618;5.130;2023-08-08T01:25:53;13.70;99.90
48728;DHT22;34527;45.618;5.130;2023-08-08T01:28:23;13.60;99.90
48728;DHT22;34527;45.618;5.130;2023-08-08T01:30:49;13.50;99.90
48728;DHT22;34527;45.618;5.130;2023-08-08T01:33:15;13.40;99.90
48728;DHT22;34527;45.618;5.130;2023-08-08T01:35:44;13.30;99.90
48728;DHT22;34527;45.618;5.130;2023-08-08T01:38:19;13.20;99.90
48728;DHT22;34527;45.618;5.130;2023-08-08T01:40:46;13.10;99.90
48728;DHT22;34527;45.618;5.130;2023-08-08T01:43:13;13.20;99.90
48728;DHT22;34527;45.618;5.130;2023-08-08T01:45:40;13.30;99.90
48728;DHT22;34527;45.618;5.130;2023-08-08T01:48:11;13.20;99.90
48728;DHT22;34527;45.618;5.130;2023-08-08T01:50:37;13.20;99.90
48728;DHT22;34527;45.618;5.130;2023-08-08T01:53:03;13.20;99.90
48728;DHT22;34527;45.618;5.130;2023-08-08T01:55:30;13.10;99.90
48728;DHT22;34527;45.618;5.130;2023-08-08T01:57:56;13.00;99.90
48728;DHT22;34527;45.618;5.130;2023-08-08T02:00:22;13.00;99.90
48728;DHT22;34527;45.618;5.130;2023-08-08T02:02:47;13.10;99.90
48728;DHT22;34527;45.618;5.130;2023-08-08T02:05:13;13.10;99.90
48728;DHT22;34527;45.618;5.130;2023-08-08T02:07:39;13.20;99.90
48728;DHT22;34527;45.618;5.130;2023-08-08T02:10:05;13.20;99.90
48728;DHT22;34527;45.618;5.130;2023-08-08T02:12:30;13.20;99.90
48728;DHT22;34527;45.618;5.130;2023-08-08T02:14:57;13.10;99.90
48728;DHT22;34527;45.618;5.130;2023-08-08T02:17:23;13.10;99.90
48728;DHT22;34527;45.618;5.130;2023-08-08T02:19:48;12.90;99.90
48728;DHT22;34527;45.618;5.130;2023-08-08T02:22:14;12.90;99.90
48728;DHT22;34527;45.618;5.130;2023-08-08T02:24:39;12.80;99.90
48728;DHT22;34527;45.618;5.130;2023-08-08T02:27:05;12.80;99.90
48728;DHT22;34527;45.618;5.130;2023-08-08T02:29:31;12.80;99.90
48728;DHT22;34527;45.618;5.130;2023-08-08T02:31:56;12.80;99.90
48728;DHT22;34527;45.618;5.130;2023-08-08T02:34:22;12.80;99.90
48728;DHT22;34527;45.618;5.130;2023-08-08T02:36:48;12.70;99.90
48728;DHT22;34527;45.618;5.130;2023-08-08T02:39:13;12.60;99.90
48728;DHT22;34527;45.618;5.130;2023-08-08T02:41:39;12.60;99.90
48728;DHT22;34527;45.618;5.130;2023-08-08T02:44:06;12.50;99.90
48728;DHT22;34527;45.618;5.130;2023-08-08T02:46:31;12.50;99.90
48728;DHT22;34527;45.618;5.130;2023-08-08T02:48:57;12.50;99.90
48728;DHT22;34527;45.618;5.130;2023-08-08T02:51:22;12.50;99.90
48728;DHT22;34527;45.618;5.130;2023-08-08T02:53:48;12.40;99.90
48728;DHT22;34527;45.618;5.130;2023-08-08T02:56:14;12.50;99.90
48728;DHT22;34527;45.618;5.130;2023-08-08T02:58:39;12.40;99.90
48728;DHT22;34527;45.618;5.130;2023-08-08T03:01:05;12.40;99.90
48728;DHT22;34527;45.618;5.130;2023-08-08T03:03:30;12.30;99.90
48728;DHT22;34527;45.618;5.130;2023-08-08T03:05:56;12.40;99.90
48728;DHT22;34527;45.618;5.130;2023-08-08T03:08:22;12.50;99.90
48728;DHT22;34527;45.618;5.130;2023-08-08T03:10:47;12.50;99.90
48728;DHT22;34527;45.618;5.130;2023-08-08T03:13:13;12.50;99.90
48728;DHT22;34527;45.618;5.130;2023-08-08T03:15:38;12.40;99.90
48728;DHT22;34527;45.618;5.130;2023-08-08T03:18:04;12.50;99.90
48728;DHT22;34527;45.618;5.130;2023-08-08T03:20:30;12.40;99.90
48728;DHT22;34527;45.618;5.130;2023-08-08T03:22:55;12.30;99.90
48728;DHT22;34527;45.618;5.130;2023-08-08T03:25:21;12.30;99.90
48728;DHT22;34527;45.618;5.130;2023-08-08T03:27:46;12.30;99.90
48728;DHT22;34527;45.618;5.130;2023-08-08T03:30:12;12.30;99.90
48728;DHT22;34527;45.618;5.130;2023-08-08T03:32:39;12.30;99.90
48728;DHT22;34527;45.618;5.130;2023-08-08T03:35:04;12.20;99.90
48728;DHT22;34527;45.618;5.130;2023-08-08T03:37:31;12.20;99.90
48728;DHT22;34527;45.618;5.130;2023-08-08T03:39:57;12.20;99.90
48728;DHT22;34527;45.618;5.130;2023-08-08T03:42:22;12.10;99.90
48728;DHT22;34527;45.618;5.130;2023-08-08T03:44:48;12.20;99.90
48728;DHT22;34527;45.618;5.130;2023-08-08T03:47:13;12.20;99.90
48728;DHT22;34527;45.618;5.130;2023-08-08T03:49:39;12.20;99.90
48728;DHT22;34527;45.618;5.130;2023-08-08T03:52:05;12.10;99.90
48728;DHT22;34527;45.618;5.130;2023-08-08T03:54:31;12.00;99.90
48728;DHT22;34527;45.618;5.130;2023-08-08T03:56:57;12.20;99.90
48728;DHT22;34527;45.618;5.130;2023-08-08T03:59:22;12.30;99.90
48728;DHT22;34527;45.618;5.130;2023-08-08T04:01:48;12.20;99.90
48728;DHT22;34527;45.618;5.130;2023-08-08T04:04:14;12.10;99.90
48728;DHT22;34527;45.618;5.130;2023-08-08T04:06:39;12.00;99.90
48728;DHT22;34527;45.618;5.130;2023-08-08T04:09:05;12.10;99.90
48728;DHT22;34527;45.618;5.130;2023-08-08T04:11:32;12.00;99.90
48728;DHT22;34527;45.618;5.130;2023-08-08T04:13:57;12.00;99.90
48728;DHT22;34527;45.618;5.130;2023-08-08T04:16:23;11.90;99.90
48728;DHT22;34527;45.618;5.130;2023-08-08T04:18:48;11.80;99.90
48728;DHT22;34527;45.618;5.130;2023-08-08T04:21:14;11.80;99.90
48728;DHT22;34527;45.618;5.130;2023-08-08T04:23:39;11.80;99.90
48728;DHT22;34527;45.618;5.130;2023-08-08T04:26:05;11.80;99.90
48728;DHT22;34527;45.618;5.130;2023-08-08T04:28:31;11.60;99.90
48728;DHT22;34527;45.618;5.130;2023-08-08T04:30:57;11.70;99.90
48728;DHT22;34527;45.618;5.130;2023-08-08T04:33:22;11.70;99.90
48728;DHT22;34527;45.618;5.130;2023-08-08T04:35:48;11.80;99.90
48728;DHT22;34527;45.618;5.130;2023-08-08T04:38:14;11.90;99.90
48728;DHT22;34527;45.618;5.130;2023-08-08T04:40:40;11.90;99.90
48728;DHT22;34527;45.618;5.130;2023-08-08T04:43:06;12.00;99.90
48728;DHT22;34527;45.618;5.130;2023-08-08T04:45:32;12.00;99.90
48728;DHT22;34527;45.618;5.130;2023-08-08T04:47:57;11.90;99.90
48728;DHT22;34527;45.618;5.130;2023-08-08T04:50:23;12.00;99.90
48728;DHT22;34527;45.618;5.130;2023-08-08T04:52:49;11.90;99.90
48728;DHT22;34527;45.618;5.130;2023-08-08T04:55:14;11.90;99.90
48728;DHT22;34527;45.618;5.130;2023-08-08T04:57:40;11.90;99.90
48728;DHT22;34527;45.618;5.130;2023-08-08T05:00:06;11.90;99.90
48728;DHT22;34527;45.618;5.130;2023-08-08T05:02:34;11.80;99.90
48728;DHT22;34527;45.618;5.130;2023-08-08T05:05:00;11.70;99.90
48728;DHT22;34527;45.618;5.130;2023-08-08T05:07:29;11.80;99.90
48728;DHT22;34527;45.618;5.130;2023-08-08T05:09:54;11.80;99.90
48728;DHT22;34527;45.618;5.130;2023-08-08T05:12:20;11.70;99.90
48728;DHT22;34527;45.618;5.130;2023-08-08T05:14:45;11.80;99.90
48728;DHT22;34527;45.618;5.130;2023-08-08T05:17:11;11.80;99.90
48728;DHT22;34527;45.618;5.130;2023-08-08T05:19:37;11.80;99.90
48728;DHT22;34527;45.618;5.130;2023-08-08T05:22:02;11.80;99.90
48728;DHT22;34527;45.618;5.130;2023-08-08T05:24:28;11.80;99.90
48728;DHT22;34527;45.618;5.130;2023-08-08T05:26:53;11.90;99.90
48728;DHT22;34527;45.618;5.130;2023-08-08T05:29:19;12.10;99.90
48728;DHT22;34527;45.618;5.130;2023-08-08T05:31:46;12.10;99.90
48728;DHT22;34527;45.618;5.130;2023-08-08T05:34:12;12.20;99.90
48728;DHT22;34527;45.618;5.130;2023-08-08T05:36:37;12.20;99.90
48728;DHT22;34527;45.618;5.130;2023-08-08T05:39:04;12.20;99.90
48728;DHT22;34527;45.618;5.130;2023-08-08T05:41:29;12.10;99.90
48728;DHT22;34527;45.618;5.130;2023-08-08T05:43:55;12.20;99.90
48728;DHT22;34527;45.618;5.130;2023-08-08T05:46:21;12.30;99.90
48728;DHT22;34527;45.618;5.130;2023-08-08T05:48:46;12.40;99.90
48728;DHT22;34527;45.618;5.130;2023-08-08T05:51:12;12.60;99.90
48728;DHT22;34527;45.618;5.130;2023-08-08T05:53:38;12.70;99.90
48728;DHT22;34527;45.618;5.130;2023-08-08T05:56:04;12.80;99.90
48728;DHT22;34527;45.618;5.130;2023-08-08T05:58:29;13.00;99.90
48728;DHT22;34527;45.618;5.130;2023-08-08T06:00:55;13.10;99.90
48728;DHT22;34527;45.618;5.130;2023-08-08T06:03:20;13.30;99.90
48728;DHT22;34527;45.618;5.130;2023-08-08T06:05:46;13.40;99.90
48728;DHT22;34527;45.618;5.130;2023-08-08T06:08:11;13.50;99.90
48728;DHT22;34527;45.618;5.130;2023-08-08T06:10:39;13.70;99.90
48728;DHT22;34527;45.618;5.130;2023-08-08T06:13:04;13.80;99.90
48728;DHT22;34527;45.618;5.130;2023-08-08T06:15:30;13.90;99.90
48728;DHT22;34527;45.618;5.130;2023-08-08T06:17:57;14.00;99.90
48728;DHT22;34527;45.618;5.130;2023-08-08T06:20:22;14.10;99.90
48728;DHT22;34527;45.618;5.130;2023-08-08T06:22:48;14.10;99.90
48728;DHT22;34527;45.618;5.130;2023-08-08T06:25:14;14.30;99.90
48728;DHT22;34527;45.618;5.130;2023-08-08T06:27:40;14.40;99.90
48728;DHT22;34527;45.618;5.130;2023-08-08T06:30:06;14.50;99.90
48728;DHT22;34527;45.618;5.130;2023-08-08T06:32:33;14.50;99.90
48728;DHT22;34527;45.618;5.130;2023-08-08T06:34:59;14.60;99.90
48728;DHT22;34527;45.618;5.130;2023-08-08T06:37:25;14.80;99.90
48728;DHT22;34527;45.618;5.130;2023-08-08T06:39:50;14.90;99.90
48728;DHT22;34527;45.618;5.130;2023-08-08T06:42:16;15.00;99.90
48728;DHT22;34527;45.618;5.130;2023-08-08T06:44:42;15.30;99.90
48728;DHT22;34527;45.618;5.130;2023-08-08T06:47:08;15.50;99.90
48728;DHT22;34527;45.618;5.130;2023-08-08T06:49:34;15.60;99.90
48728;DHT22;34527;45.618;5.130;2023-08-08T06:52:00;15.80;99.90
48728;DHT22;34527;45.618;5.130;2023-08-08T06:54:25;15.80;99.90
48728;DHT22;34527;45.618;5.130;2023-08-08T06:56:53;15.90;99.90
48728;DHT22;34527;45.618;5.130;2023-08-08T06:59:19;15.90;99.90
48728;DHT22;34527;45.618;5.130;2023-08-08T07:01:45;16.00;99.90
48728;DHT22;34527;45.618;5.130;2023-08-08T07:04:10;16.10;99.90
48728;DHT22;34527;45.618;5.130;2023-08-08T07:06:36;16.30;99.90
48728;DHT22;34527;45.618;5.130;2023-08-08T07:09:01;16.40;99.90
48728;DHT22;34527;45.618;5.130;2023-08-08T07:11:27;16.50;99.90
48728;DHT22;34527;45.618;5.130;2023-08-08T07:13:53;16.60;99.90
48728;DHT22;34527;45.618;5.130;2023-08-08T07:16:19;16.60;99.90
48728;DHT22;34527;45.618;5.130;2023-08-08T07:18:44;16.70;99.90
48728;DHT22;34527;45.618;5.130;2023-08-08T07:21:10;16.80;99.90
48728;DHT22;34527;45.618;5.130;2023-08-08T07:23:36;16.90;99.90
48728;DHT22;34527;45.618;5.130;2023-08-08T07:26:01;16.80;99.90
48728;DHT22;34527;45.618;5.130;2023-08-08T07:28:27;16.80;99.90
48728;DHT22;34527;45.618;5.130;2023-08-08T07:30:52;16.90;99.90
48728;DHT22;34527;45.618;5.130;2023-08-08T07:33:18;16.90;99.90
48728;DHT22;34527;45.618;5.130;2023-08-08T07:35:43;17.20;99.90
48728;DHT22;34527;45.618;5.130;2023-08-08T07:38:09;17.20;99.90
48728;DHT22;34527;45.618;5.130;2023-08-08T07:40:35;17.20;99.90
48728;DHT22;34527;45.618;5.130;2023-08-08T07:43:01;17.20;99.90
48728;DHT22;34527;45.618;5.130;2023-08-08T07:45:27;17.20;99.90
48728;DHT22;34527;45.618;5.130;2023-08-08T07:47:52;17.40;99.90
48728;DHT22;34527;45.618;5.130;2023-08-08T07:50:18;17.60;99.90
48728;DHT22;34527;45.618;5.130;2023-08-08T07:52:44;17.70;99.90
48728;DHT22;34527;45.618;5.130;2023-08-08T07:55:09;17.80;99.90
48728;DHT22;34527;45.618;5.130;2023-08-08T07:57:35;17.80;99.90
48728;DHT22;34527;45.618;5.130;2023-08-08T08:00:04;17.90;99.90
48728;DHT22;34527;45.618;5.130;2023-08-08T08:02:36;17.90;99.90
48728;DHT22;34527;45.618;5.130;2023-08-08T08:05:02;17.90;99.90
48728;DHT22;34527;45.618;5.130;2023-08-08T08:07:31;18.10;99.90
48728;DHT22;34527;45.618;5.130;2023-08-08T08:09:57;18.20;99.90
48728;DHT22;34527;45.618;5.130;2023-08-08T08:12:23;18.30;99.90
48728;DHT22;34527;45.618;5.130;2023-08-08T08:14:49;18.40;99.90
48728;DHT22;34527;45.618;5.130;2023-08-08T08:17:14;18.50;99.90
48728;DHT22;34527;45.618;5.130;2023-08-08T08:19:40;18.70;99.90
48728;DHT22;34527;45.618;5.130;2023-08-08T08:22:05;18.70;99.90
48728;DHT22;34527;45.618;5.130;2023-08-08T08:24:31;18.70;99.90
48728;DHT22;34527;45.618;5.130;2023-08-08T08:26:57;18.70;99.90
48728;DHT22;34527;45.618;5.130;2023-08-08T08:29:22;18.90;99.90
48728;DHT22;34527;45.618;5.130;2023-08-08T08:31:48;18.90;99.90
48728;DHT22;34527;45.618;5.130;2023-08-08T08:34:13;19.00;99.90
48728;DHT22;34527;45.618;5.130;2023-08-08T08:36:39;19.00;99.90
48728;DHT22;34527;45.618;5.130;2023-08-08T08:39:04;19.00;99.90
48728;DHT22;34527;45.618;5.130;2023-08-08T08:41:31;19.00;99.90
48728;DHT22;34527;45.618;5.130;2023-08-08T08:43:59;19.00;99.90
48728;DHT22;34527;45.618;5.130;2023-08-08T08:46:26;19.10;99.90
48728;DHT22;34527;45.618;5.130;2023-08-08T08:48:54;19.20;99.90
48728;DHT22;34527;45.618;5.130;2023-08-08T08:51:21;19.30;99.90
48728;DHT22;34527;45.618;5.130;2023-08-08T08:53:47;19.40;99.90
48728;DHT22;34527;45.618;5.130;2023-08-08T08:56:14;19.40;99.90
48728;DHT22;34527;45.618;5.130;2023-08-08T08:58:40;19.50;99.90
48728;DHT22;34527;45.618;5.130;2023-08-08T09:01:07;19.60;99.90
48728;DHT22;34527;45.618;5.130;2023-08-08T09:03:34;19.50;99.90
48728;DHT22;34527;45.618;5.130;2023-08-08T09:06:00;19.40;99.90
48728;DHT22;34527;45.618;5.130;2023-08-08T09:08:26;19.50;99.90
48728;DHT22;34527;45.618;5.130;2023-08-08T09:10:52;19.50;99.90
48728;DHT22;34527;45.618;5.130;2023-08-08T09:13:17;19.60;99.90
48728;DHT22;34527;45.618;5.130;2023-08-08T09:15:47;19.60;99.90
48728;DHT22;34527;45.618;5.130;2023-08-08T09:18:13;19.60;99.90
48728;DHT22;34527;45.618;5.130;2023-08-08T09:20:39;19.50;99.90
48728;DHT22;34527;45.618;5.130;2023-08-08T09:23:04;19.70;99.90
48728;DHT22;34527;45.618;5.130;2023-08-08T09:25:30;19.60;99.90
48728;DHT22;34527;45.618;5.130;2023-08-08T09:27:55;19.80;99.90
48728;DHT22;34527;45.618;5.130;2023-08-08T09:30:21;20.00;99.90
48728;DHT22;34527;45.618;5.130;2023-08-08T09:32:47;20.00;99.90
48728;DHT22;34527;45.618;5.130;2023-08-08T09:35:13;20.00;99.90
48728;DHT22;34527;45.618;5.130;2023-08-08T09:37:39;20.20;99.90
48728;DHT22;34527;45.618;5.130;2023-08-08T09:40:05;20.30;99.90
48728;DHT22;34527;45.618;5.130;2023-08-08T09:42:33;20.40;99.90
48728;DHT22;34527;45.618;5.130;2023-08-08T09:44:59;20.70;99.90
48728;DHT22;34527;45.618;5.130;2023-08-08T09:47:26;20.80;99.90
48728;DHT22;34527;45.618;5.130;2023-08-08T09:50:00;20.90;99.90
48728;DHT22;34527;45.618;5.130;2023-08-08T09:52:27;21.00;99.90
48728;DHT22;34527;45.618;5.130;2023-08-08T09:54:54;21.10;99.90
48728;DHT22;34527;45.618;5.130;2023-08-08T09:57:21;21.20;99.90
48728;DHT22;34527;45.618;5.130;2023-08-08T09:59:47;21.20;99.90
48728;DHT22;34527;45.618;5.130;2023-08-08T10:02:15;21.30;99.90
48728;DHT22;34527;45.618;5.130;2023-08-08T10:04:41;21.30;99.90
48728;DHT22;34527;45.618;5.130;2023-08-08T10:07:07;21.40;99.90
48728;DHT22;34527;45.618;5.130;2023-08-08T10:09:33;21.70;99.90
48728;DHT22;34527;45.618;5.130;2023-08-08T10:11:59;21.70;99.90
48728;DHT22;34527;45.618;5.130;2023-08-08T10:14:30;21.80;99.90
48728;DHT22;34527;45.618;5.130;2023-08-08T10:16:56;21.90;99.90
48728;DHT22;34527;45.618;5.130;2023-08-08T10:19:23;21.90;99.90
48728;DHT22;34527;45.618;5.130;2023-08-08T10:21:57;21.90;99.90
48728;DHT22;34527;45.618;5.130;2023-08-08T10:24:23;21.90;99.90
48728;DHT22;34527;45.618;5.130;2023-08-08T10:29:19;22.00;99.90
48728;DHT22;34527;45.618;5.130;2023-08-08T10:32:03;21.90;99.90
48728;DHT22;34527;45.618;5.130;2023-08-08T10:34:46;22.10;99.90
48728;DHT22;34527;45.618;5.130;2023-08-08T10:37:16;22.10;99.90
48728;DHT22;34527;45.618;5.130;2023-08-08T10:42:20;22.30;99.90
48728;DHT22;34527;45.618;5.130;2023-08-08T10:44:52;22.20;99.90
48728;DHT22;34527;45.618;5.130;2023-08-08T10:47:33;22.40;99.90
48728;DHT22;34527;45.618;5.130;2023-08-08T10:52:29;22.40;99.90
48728;DHT22;34527;45.618;5.130;2023-08-08T10:54:55;22.40;99.90
48728;DHT22;34527;45.618;5.130;2023-08-08T10:57:24;22.50;99.90
48728;DHT22;34527;45.618;5.130;2023-08-08T10:59:50;22.50;99.90
48728;DHT22;34527;45.618;5.130;2023-08-08T11:02:16;22.70;99.90
48728;DHT22;34527;45.618;5.130;2023-08-08T11:04:41;22.90;99.90
48728;DHT22;34527;45.618;5.130;2023-08-08T11:07:07;23.10;99.90
48728;DHT22;34527;45.618;5.130;2023-08-08T11:09:34;23.00;99.90
48728;DHT22;34527;45.618;5.130;2023-08-08T11:12:00;22.90;99.90
48728;DHT22;34527;45.618;5.130;2023-08-08T11:14:25;22.80;99.90
48728;DHT22;34527;45.618;5.130;2023-08-08T11:16:52;22.70;99.90
48728;DHT22;34527;45.618;5.130;2023-08-08T11:19:18;22.90;99.90
48728;DHT22;34527;45.618;5.130;2023-08-08T11:21:45;22.80;99.90
48728;DHT22;34527;45.618;5.130;2023-08-08T11:24:12;22.80;99.90
48728;DHT22;34527;45.618;5.130;2023-08-08T11:26:40;22.80;99.90
48728;DHT22;34527;45.618;5.130;2023-08-08T11:29:06;22.90;99.90
48728;DHT22;34527;45.618;5.130;2023-08-08T11:31:33;22.80;99.90
48728;DHT22;34527;45.618;5.130;2023-08-08T11:33:59;22.70;99.90
48728;DHT22;34527;45.618;5.130;2023-08-08T11:36:26;22.90;99.90
48728;DHT22;34527;45.618;5.130;2023-08-08T11:38:54;23.10;99.90
48728;DHT22;34527;45.618;5.130;2023-08-08T11:41:23;23.40;99.90
48728;DHT22;34527;45.618;5.130;2023-08-08T11:43:50;23.40;99.90
48728;DHT22;34527;45.618;5.130;2023-08-08T11:46:16;23.30;99.90
48728;DHT22;34527;45.618;5.130;2023-08-08T11:48:43;23.30;99.90
48728;DHT22;34527;45.618;5.130;2023-08-08T11:51:13;23.20;99.90
48728;DHT22;34527;45.618;5.130;2023-08-08T11:53:51;23.30;99.90
48728;DHT22;34527;45.618;5.130;2023-08-08T11:56:21;23.10;99.90
48728;DHT22;34527;45.618;5.130;2023-08-08T11:58:50;23.40;99.90
48728;DHT22;34527;45.618;5.130;2023-08-08T12:01:23;23.60;99.90
48728;DHT22;34527;45.618;5.130;2023-08-08T12:03:50;23.50;99.90
48728;DHT22;34527;45.618;5.130;2023-08-08T12:06:16;23.60;99.90
48728;DHT22;34527;45.618;5.130;2023-08-08T12:08:46;23.50;99.90
48728;DHT22;34527;45.618;5.130;2023-08-08T12:11:13;23.70;99.90
48728;DHT22;34527;45.618;5.130;2023-08-08T12:13:42;23.50;99.90
48728;DHT22;34527;45.618;5.130;2023-08-08T12:16:10;23.50;99.90
48728;DHT22;34527;45.618;5.130;2023-08-08T12:18:39;23.70;99.90
48728;DHT22;34527;45.618;5.130;2023-08-08T12:21:05;23.60;99.90
48728;DHT22;34527;45.618;5.130;2023-08-08T12:23:31;23.80;99.90
48728;DHT22;34527;45.618;5.130;2023-08-08T12:25:58;23.60;99.90
48728;DHT22;34527;45.618;5.130;2023-08-08T12:28:25;23.40;99.90
48728;DHT22;34527;45.618;5.130;2023-08-08T12:30:51;23.40;99.90
48728;DHT22;34527;45.618;5.130;2023-08-08T12:33:16;23.40;99.90
48728;DHT22;34527;45.618;5.130;2023-08-08T12:35:42;23.40;99.90
48728;DHT22;34527;45.618;5.130;2023-08-08T12:38:07;23.50;99.90
48728;DHT22;34527;45.618;5.130;2023-08-08T12:40:33;23.50;99.90
48728;DHT22;34527;45.618;5.130;2023-08-08T12:42:59;23.60;99.90
48728;DHT22;34527;45.618;5.130;2023-08-08T12:45:25;23.70;99.90
48728;DHT22;34527;45.618;5.130;2023-08-08T12:47:50;23.90;99.90
48728;DHT22;34527;45.618;5.130;2023-08-08T12:50:16;23.80;99.90
48728;DHT22;34527;45.618;5.130;2023-08-08T12:52:42;23.90;99.90
48728;DHT22;34527;45.618;5.130;2023-08-08T12:55:08;23.80;99.90
48728;DHT22;34527;45.618;5.130;2023-08-08T12:57:36;23.70;99.90
48728;DHT22;34527;45.618;5.130;2023-08-08T13:00:02;23.70;99.90
48728;DHT22;34527;45.618;5.130;2023-08-08T13:02:28;23.80;99.90
48728;DHT22;34527;45.618;5.130;2023-08-08T13:04:54;23.90;99.90
48728;DHT22;34527;45.618;5.130;2023-08-08T13:07:19;24.10;99.90
48728;DHT22;34527;45.618;5.130;2023-08-08T13:09:45;24.10;99.90
48728;DHT22;34527;45.618;5.130;2023-08-08T13:12:10;24.10;99.90
48728;DHT22;34527;45.618;5.130;2023-08-08T13:14:36;24.40;99.90
48728;DHT22;34527;45.618;5.130;2023-08-08T13:17:02;24.50;99.90
48728;DHT22;34527;45.618;5.130;2023-08-08T13:19:27;24.10;99.90
48728;DHT22;34527;45.618;5.130;2023-08-08T13:21:54;24.10;99.90
48728;DHT22;34527;45.618;5.130;2023-08-08T13:24:20;24.10;99.90
48728;DHT22;34527;45.618;5.130;2023-08-08T13:26:49;24.30;99.90
48728;DHT22;34527;45.618;5.130;2023-08-08T13:29:14;24.60;99.90
48728;DHT22;34527;45.618;5.130;2023-08-08T13:31:40;24.40;99.90
48728;DHT22;34527;45.618;5.130;2023-08-08T13:34:05;24.50;99.90
48728;DHT22;34527;45.618;5.130;2023-08-08T13:36:31;24.70;99.90
48728;DHT22;34527;45.618;5.130;2023-08-08T13:38:57;24.90;99.90
48728;DHT22;34527;45.618;5.130;2023-08-08T13:41:23;25.10;99.90
48728;DHT22;34527;45.618;5.130;2023-08-08T13:43:48;25.00;99.90
48728;DHT22;34527;45.618;5.130;2023-08-08T13:46:14;24.80;99.90
48728;DHT22;34527;45.618;5.130;2023-08-08T13:48:39;24.80;99.90
48728;DHT22;34527;45.618;5.130;2023-08-08T13:51:05;24.90;99.90
48728;DHT22;34527;45.618;5.130;2023-08-08T13:53:31;24.80;99.90
48728;DHT22;34527;45.618;5.130;2023-08-08T13:55:56;24.80;99.90
48728;DHT22;34527;45.618;5.130;2023-08-08T13:58:22;24.80;99.90
48728;DHT22;34527;45.618;5.130;2023-08-08T14:00:48;24.90;99.90
48728;DHT22;34527;45.618;5.130;2023-08-08T14:03:14;24.80;99.90
48728;DHT22;34527;45.618;5.130;2023-08-08T14:05:40;24.90;99.90
48728;DHT22;34527;45.618;5.130;2023-08-08T14:08:05;25.20;99.90
48728;DHT22;34527;45.618;5.130;2023-08-08T14:10:32;25.20;99.90
48728;DHT22;34527;45.618;5.130;2023-08-08T14:12:57;25.20;99.90
48728;DHT22;34527;45.618;5.130;2023-08-08T14:15:23;25.00;99.90
48728;DHT22;34527;45.618;5.130;2023-08-08T14:17:48;25.00;99.90
48728;DHT22;34527;45.618;5.130;2023-08-08T14:20:14;25.00;99.90
48728;DHT22;34527;45.618;5.130;2023-08-08T14:22:40;25.00;99.90
48728;DHT22;34527;45.618;5.130;2023-08-08T14:25:09;24.90;99.90
48728;DHT22;34527;45.618;5.130;2023-08-08T14:27:34;24.90;99.90
48728;DHT22;34527;45.618;5.130;2023-08-08T14:30:02;24.80;99.90
48728;DHT22;34527;45.618;5.130;2023-08-08T14:32:29;25.00;99.90
48728;DHT22;34527;45.618;5.130;2023-08-08T14:34:54;25.20;99.90
48728;DHT22;34527;45.618;5.130;2023-08-08T14:37:20;25.50;99.90
48728;DHT22;34527;45.618;5.130;2023-08-08T14:39:46;25.60;99.90
48728;DHT22;34527;45.618;5.130;2023-08-08T14:42:12;25.70;99.90
48728;DHT22;34527;45.618;5.130;2023-08-08T14:44:38;25.70;99.90
48728;DHT22;34527;45.618;5.130;2023-08-08T14:47:04;25.70;99.90
48728;DHT22;34527;45.618;5.130;2023-08-08T14:49:30;25.40;99.90
48728;DHT22;34527;45.618;5.130;2023-08-08T14:51:55;25.30;99.90
48728;DHT22;34527;45.618;5.130;2023-08-08T14:54:21;25.30;99.90
48728;DHT22;34527;45.618;5.130;2023-08-08T14:56:46;25.20;99.90
48728;DHT22;34527;45.618;5.130;2023-08-08T14:59:12;25.30;99.90
48728;DHT22;34527;45.618;5.130;2023-08-08T15:01:38;25.10;99.90
48728;DHT22;34527;45.618;5.130;2023-08-08T15:04:04;25.00;99.90
48728;DHT22;34527;45.618;5.130;2023-08-08T15:06:29;25.10;99.90
48728;DHT22;34527;45.618;5.130;2023-08-08T15:08:55;25.20;99.90
48728;DHT22;34527;45.618;5.130;2023-08-08T15:11:20;25.40;99.90
48728;DHT22;34527;45.618;5.130;2023-08-08T15:13:46;25.30;99.90
48728;DHT22;34527;45.618;5.130;2023-08-08T15:16:11;25.20;99.90
48728;DHT22;34527;45.618;5.130;2023-08-08T15:18:37;25.20;99.90
48728;DHT22;34527;45.618;5.130;2023-08-08T15:21:03;25.10;99.90
48728;DHT22;34527;45.618;5.130;2023-08-08T15:23:28;25.00;99.90
48728;DHT22;34527;45.618;5.130;2023-08-08T15:25:54;24.90;99.90
48728;DHT22;34527;45.618;5.130;2023-08-08T15:28:20;25.00;99.90
48728;DHT22;34527;45.618;5.130;2023-08-08T15:30:46;24.80;99.90
48728;DHT22;34527;45.618;5.130;2023-08-08T15:33:12;24.80;99.90